createdAt,value
2022-08-17T00:01:16.165Z,21.95
2022-08-17T00:06:24.386Z,21.88
2022-08-17T00:11:30.108Z,19.35
2022-08-17T00:16:55.327Z,19.00
2022-08-17T00:22:33.810Z,23.60
2022-08-17T00:27:25.648Z,22.23
2022-08-17T00:33:15.854Z,25.45
2022-08-17T00:37:53.171Z,26.00
2022-08-17T00:42:56.358Z,23.02
2022-08-17T00:47:59.203Z,27.40
2022-08-17T00:53:05.045Z,28.30
2022-08-17T00:58:07.976Z,33.63
2022-08-17T01:03:16.729Z,32.35
2022-08-17T01:08:25.304Z,30.50
2022-08-17T01:13:30.479Z,37.30
2022-08-17T01:18:35.245Z,38.25
2022-08-17T01:23:39.836Z,36.42
2022-08-17T01:28:53.934Z,35.55
2022-08-17T01:33:59.608Z,34.70
2022-08-17T01:39:07.759Z,33.08
2022-08-17T01:44:11.296Z,36.60
2022-08-17T01:49:14.297Z,34.22
2022-08-17T01:54:20.620Z,35.20
2022-08-17T01:59:23.786Z,37.13
2022-08-17T02:04:26.671Z,40.30
2022-08-17T02:09:31.217Z,35.50
2022-08-17T02:14:34.210Z,33.28
2022-08-17T02:19:37.007Z,35.83
2022-08-17T02:24:58.378Z,39.10
2022-08-17T02:30:02.569Z,36.13
2022-08-17T02:35:06.872Z,39.10
2022-08-17T02:40:12.443Z,39.53
2022-08-17T02:45:19.025Z,39.88
2022-08-17T02:50:25.384Z,38.45
2022-08-17T02:55:32.583Z,37.88
2022-08-17T03:00:37.787Z,39.50
2022-08-17T03:05:41.798Z,39.03
2022-08-17T03:10:47.188Z,41.05
2022-08-17T03:15:50.571Z,38.17
2022-08-17T03:20:54.474Z,43.85
2022-08-17T03:26:00.016Z,40.53
2022-08-17T03:31:03.028Z,39.47
2022-08-17T03:36:06.755Z,40.72
2022-08-17T03:41:10.970Z,37.42
2022-08-17T03:46:35.023Z,38.65
2022-08-17T03:51:55.802Z,42.75
2022-08-17T03:57:03.924Z,40.85
2022-08-17T04:02:11.031Z,43.40
2022-08-17T04:07:13.896Z,40.17
2022-08-17T04:12:20.086Z,40.40
2022-08-17T04:17:25.628Z,43.20
2022-08-17T04:22:31.965Z,40.72
2022-08-17T04:27:38.591Z,38.80
2022-08-17T04:33:04.351Z,40.60
2022-08-17T04:38:12.275Z,39.65
2022-08-17T04:43:18.769Z,39.13
2022-08-17T04:48:22.278Z,36.90
2022-08-17T04:53:25.273Z,35.03
2022-08-17T04:58:29.793Z,38.97
2022-08-17T05:03:33.099Z,39.88
2022-08-17T05:08:36.402Z,35.13
2022-08-17T05:13:42.935Z,33.90
2022-08-17T05:18:46.317Z,37.45
2022-08-17T05:23:54.721Z,35.95
2022-08-17T05:29:02.722Z,31.50
2022-08-17T05:34:07.195Z,32.22
2022-08-17T05:39:13.426Z,30.55
2022-08-17T05:44:21.513Z,33.55
2022-08-17T05:49:28.143Z,31.13
2022-08-17T05:54:45.305Z,30.58
2022-08-17T06:00:01.524Z,28.73
2022-08-17T06:05:15.923Z,29.27
2022-08-17T06:10:27.828Z,27.85
2022-08-17T06:15:41.561Z,27.52
2022-08-17T06:20:49.960Z,25.55
2022-08-17T06:25:57.173Z,26.65
2022-08-17T06:31:09.598Z,23.20
2022-08-17T06:36:29.347Z,23.00
2022-08-17T06:41:46.116Z,23.75
2022-08-17T06:46:58.086Z,23.33
2022-08-17T06:52:09.159Z,20.98
2022-08-17T06:57:19.188Z,18.08
2022-08-17T07:02:51.927Z,18.35
2022-08-17T07:08:04.767Z,13.70
2022-08-17T07:13:21.454Z,14.35
2022-08-17T07:18:27.866Z,12.70
2022-08-17T07:23:40.114Z,12.00
2022-08-17T07:28:45.668Z,12.25
2022-08-17T07:34:03.921Z,12.35
2022-08-17T07:39:07.482Z,11.70
2022-08-17T07:44:16.474Z,11.35
2022-08-17T07:49:37.140Z,12.68
2022-08-17T07:54:42.891Z,12.20
2022-08-17T08:00:10.675Z,11.88
2022-08-17T08:05:48.691Z,15.98
2022-08-17T08:10:59.702Z,12.85
2022-08-17T08:16:23.840Z,14.05
2022-08-17T08:21:43.083Z,11.65
2022-08-17T08:26:55.504Z,12.55
2022-08-17T08:32:07.897Z,17.45
2022-08-17T08:37:30.302Z,12.65
2022-08-17T08:42:46.704Z,11.48
2022-08-17T08:48:12.674Z,10.73
2022-08-17T08:53:28.585Z,10.20
2022-08-17T08:58:41.930Z,10.13
2022-08-17T09:04:19.988Z,8.32
2022-08-17T09:09:41.906Z,8.15
2022-08-17T09:14:55.455Z,9.00
2022-08-17T09:20:04.878Z,8.13
2022-08-17T09:25:13.075Z,7.60
2022-08-17T09:30:16.476Z,10.23
2022-08-17T09:35:23.799Z,8.07
2022-08-17T09:40:34.991Z,9.60
2022-08-17T09:45:46.299Z,10.55
2022-08-17T09:51:05.703Z,7.72
2022-08-17T09:56:31.373Z,6.80
2022-08-17T10:01:39.791Z,11.13
2022-08-17T10:06:51.282Z,9.90
2022-08-17T10:12:20.368Z,8.98
2022-08-17T10:17:34.118Z,12.70
2022-08-17T10:23:00.966Z,10.32
2022-08-17T10:28:15.785Z,8.73
2022-08-17T10:33:28.655Z,10.27
2022-08-17T10:38:42.242Z,8.55
2022-08-17T10:44:39.481Z,7.70
2022-08-17T10:49:26.797Z,9.05
2022-08-17T10:54:48.209Z,9.18
2022-08-17T10:59:54.991Z,8.68
2022-08-17T11:05:20.731Z,8.80
2022-08-17T11:10:54.542Z,8.23
2022-08-17T11:16:10.773Z,6.82
2022-08-17T11:21:39.197Z,7.30
2022-08-17T11:26:47.599Z,6.50
2022-08-17T11:32:06.287Z,7.43
2022-08-17T11:37:28.802Z,11.10
2022-08-17T11:42:45.312Z,7.97
2022-08-17T11:48:29.229Z,9.97
2022-08-17T11:54:30.564Z,8.05
2022-08-17T11:59:55.296Z,7.97
2022-08-17T12:05:27.658Z,6.97
2022-08-17T12:10:34.365Z,9.07
2022-08-17T12:15:48.768Z,9.93
2022-08-17T12:21:13.365Z,7.82
2022-08-17T12:26:20.064Z,9.27
2022-08-17T12:31:25.984Z,7.18
2022-08-17T12:36:30.519Z,10.27
2022-08-17T12:41:38.933Z,7.50
2022-08-17T12:46:54.765Z,7.22
2022-08-17T12:52:14.690Z,9.80
2022-08-17T12:57:20.255Z,6.88
2022-08-17T13:02:31.085Z,9.18
2022-08-17T13:07:41.995Z,7.82
2022-08-17T13:12:44.919Z,9.35
2022-08-17T13:17:57.726Z,6.80
2022-08-17T13:23:10.070Z,8.18
2022-08-17T13:28:35.649Z,8.07
2022-08-17T13:33:43.489Z,9.48
2022-08-17T13:38:51.118Z,7.88
2022-08-17T13:43:54.016Z,7.15
2022-08-17T13:49:03.305Z,7.75
2022-08-17T13:54:27.713Z,8.43
2022-08-17T13:59:55.249Z,7.13
2022-08-17T14:05:00.535Z,8.65
2022-08-17T14:10:11.624Z,7.00
2022-08-17T14:15:16.286Z,8.45
2022-08-17T14:20:22.199Z,7.57
2022-08-17T14:25:29.715Z,8.90
2022-08-17T14:30:32.500Z,8.90
2022-08-17T14:35:35.572Z,7.88
2022-08-17T14:40:39.836Z,7.22
2022-08-17T14:45:42.816Z,10.00
2022-08-17T14:50:46.201Z,8.43
2022-08-17T14:55:52.676Z,8.82
2022-08-17T15:00:55.545Z,10.40
2022-08-17T15:05:58.388Z,7.32
2022-08-17T15:11:04.861Z,7.63
2022-08-17T15:16:08.638Z,7.40
2022-08-17T15:21:11.609Z,8.38
2022-08-17T15:26:16.844Z,8.40
2022-08-17T15:31:20.082Z,9.05
2022-08-17T15:36:34.851Z,7.68
2022-08-17T15:41:40.871Z,8.32
2022-08-17T15:46:43.708Z,10.45
2022-08-17T15:51:46.742Z,10.00
2022-08-17T15:56:51.046Z,12.70
2022-08-17T16:03:13.847Z,16.33
2022-08-17T16:07:19.366Z,13.77
2022-08-17T16:12:26.485Z,10.95
2022-08-17T16:17:39.574Z,10.60
2022-08-17T16:22:46.054Z,10.57
2022-08-17T16:27:53.513Z,11.65
2022-08-17T16:32:58.924Z,13.25
2022-08-17T16:38:02.689Z,10.85
2022-08-17T16:43:10.500Z,15.65
2022-08-17T16:48:15.328Z,9.68
2022-08-17T16:53:20.179Z,11.02
2022-08-17T16:58:24.780Z,12.07
2022-08-17T17:03:31.807Z,10.45
2022-08-17T17:08:42.215Z,9.00
2022-08-17T17:13:54.058Z,10.38
2022-08-17T17:19:09.356Z,11.07
2022-08-17T17:24:17.634Z,11.73
2022-08-17T17:29:47.266Z,10.77
2022-08-17T17:34:58.743Z,16.58
2022-08-17T17:40:05.792Z,11.32
2022-08-17T17:45:21.901Z,9.20
2022-08-17T17:50:33.881Z,9.30
2022-08-17T17:55:51.409Z,9.30
2022-08-17T18:01:11.381Z,11.05
2022-08-17T18:06:26.073Z,10.95
2022-08-17T18:11:50.745Z,12.40
2022-08-17T18:17:01.665Z,9.07
2022-08-17T18:22:14.201Z,11.05
2022-08-17T18:27:25.071Z,10.82
2022-08-17T18:32:38.054Z,9.00
2022-08-17T18:37:44.962Z,12.75
2022-08-17T18:42:59.979Z,10.65
2022-08-17T18:48:30.484Z,10.20
2022-08-17T18:53:50.358Z,10.13
2022-08-17T18:59:45.268Z,11.85
2022-08-17T19:05:13.453Z,13.50
2022-08-17T19:10:24.529Z,14.00
2022-08-17T19:15:34.783Z,13.10
2022-08-17T19:20:47.608Z,14.23
2022-08-17T19:25:58.952Z,15.75
2022-08-17T19:31:12.857Z,12.77
2022-08-17T19:36:42.163Z,11.30
2022-08-17T19:42:00.379Z,13.75
2022-08-17T19:47:11.791Z,11.32
2022-08-17T20:05:25.742Z,12.93
2022-08-17T20:10:34.918Z,11.55
2022-08-17T20:15:41.927Z,12.23
2022-08-17T20:20:54.700Z,12.83
2022-08-17T20:26:06.533Z,13.77
2022-08-17T20:31:39.142Z,11.50
2022-08-17T20:37:00.328Z,12.20
2022-08-17T20:42:12.767Z,10.63
2022-08-17T20:47:27.011Z,7.93
2022-08-17T20:52:48.923Z,9.20
2022-08-17T20:57:51.940Z,9.65
2022-08-17T21:03:49.147Z,10.45
2022-08-17T21:08:59.193Z,10.07
2022-08-17T21:19:44.437Z,10.25
2022-08-17T21:25:15.193Z,10.77
2022-08-17T21:30:46.963Z,9.20
2022-08-17T21:35:54.063Z,7.47
2022-08-17T21:41:02.732Z,10.80
2022-08-17T21:46:11.702Z,11.05
2022-08-17T21:51:20.706Z,8.07
2022-08-17T21:56:27.243Z,8.70
2022-08-17T22:01:34.217Z,10.13
2022-08-17T22:06:40.637Z,7.47
2022-08-17T22:11:55.133Z,8.20
2022-08-17T22:17:26.267Z,8.85
2022-08-17T22:22:34.465Z,7.53
2022-08-17T22:27:53.018Z,8.55
2022-08-17T22:32:56.590Z,7.80
2022-08-17T22:38:30.949Z,7.80
2022-08-17T22:43:40.374Z,7.97
2022-08-17T22:48:50.276Z,6.75
2022-08-17T22:54:15.970Z,6.53
2022-08-17T22:59:41.510Z,7.30
2022-08-17T23:04:48.544Z,6.30
2022-08-17T23:09:54.070Z,5.87
2022-08-17T23:15:02.778Z,6.88
2022-08-17T23:20:08.236Z,6.30
2022-08-17T23:25:17.737Z,4.72
2022-08-17T23:30:25.539Z,5.25
2022-08-17T23:35:39.094Z,4.15
2022-08-17T23:40:43.664Z,4.10
2022-08-17T23:45:48.202Z,5.25
2022-08-17T23:50:53.196Z,4.13
2022-08-17T23:56:09.813Z,3.58
